sensor_id;sensor_type;location;lat;lon;timestamp;pressure;altitude;pressure_sealevel;temperature;humidity
22743;BME280;11538;48.884;8.696;2023-12-04T00:01:17;98830.47;;;-2.56;100.00
22743;BME280;11538;48.884;8.696;2023-12-04T00:03:44;98818.63;;;-2.54;100.00
22743;BME280;11538;48.884;8.696;2023-12-04T00:06:12;98818.63;;;-2.54;100.00
22743;BME280;11538;48.884;8.696;2023-12-04T00:08:39;98817.59;;;-2.53;100.00
22743;BME280;11538;48.884;8.696;2023-12-04T00:11:07;98809.63;;;-2.53;100.00
22743;BME280;11538;48.884;8.696;2023-12-04T00:13:34;98809.63;;;-2.53;100.00
22743;BME280;11538;48.884;8.696;2023-12-04T00:16:02;98812.13;;;-2.58;100.00
22743;BME280;11538;48.884;8.696;2023-12-04T00:18:29;98804.38;;;-2.66;100.00
22743;BME280;11538;48.884;8.696;2023-12-04T00:20:57;98805.19;;;-2.66;100.00
22743;BME280;11538;48.884;8.696;2023-12-04T00:23:23;98803.38;;;-2.65;100.00
22743;BME280;11538;48.884;8.696;2023-12-04T00:25:51;98788.84;;;-2.62;100.00
22743;BME280;11538;48.884;8.696;2023-12-04T00:28:18;98791.91;;;-2.59;100.00
22743;BME280;11538;48.884;8.696;2023-12-04T00:30:45;98785.72;;;-2.53;100.00
22743;BME280;11538;48.884;8.696;2023-12-04T00:33:12;98776.94;;;-2.53;100.00
22743;BME280;11538;48.884;8.696;2023-12-04T00:35:39;98785.66;;;-2.46;100.00
22743;BME280;11538;48.884;8.696;2023-12-04T00:38:06;98783.44;;;-2.49;100.00
22743;BME280;11538;48.884;8.696;2023-12-04T00:40:33;98791.63;;;-2.51;100.00
22743;BME280;11538;48.884;8.696;2023-12-04T00:43:00;98786.41;;;-2.64;100.00
22743;BME280;11538;48.884;8.696;2023-12-04T00:45:27;98787.63;;;-2.67;100.00
22743;BME280;11538;48.884;8.696;2023-12-04T00:47:54;98783.53;;;-2.62;100.00
22743;BME280;11538;48.884;8.696;2023-12-04T00:50:21;98773.91;;;-2.57;100.00
22743;BME280;11538;48.884;8.696;2023-12-04T00:52:48;98768.78;;;-2.58;100.00
22743;BME280;11538;48.884;8.696;2023-12-04T00:55:15;98763.66;;;-2.53;100.00
22743;BME280;11538;48.884;8.696;2023-12-04T00:57:42;98765.53;;;-2.60;100.00
22743;BME280;11538;48.884;8.696;2023-12-04T01:00:10;98764.13;;;-2.63;100.00
22743;BME280;11538;48.884;8.696;2023-12-04T01:02:37;98760.66;;;-2.63;100.00
22743;BME280;11538;48.884;8.696;2023-12-04T01:05:04;98761.88;;;-2.66;100.00
22743;BME280;11538;48.884;8.696;2023-12-04T01:07:31;98759.03;;;-2.65;100.00
22743;BME280;11538;48.884;8.696;2023-12-04T01:09:58;98745.91;;;-2.59;100.00
22743;BME280;11538;48.884;8.696;2023-12-04T01:12:25;98746.47;;;-2.51;100.00
22743;BME280;11538;48.884;8.696;2023-12-04T01:14:52;98741.34;;;-2.45;100.00
22743;BME280;11538;48.884;8.696;2023-12-04T01:17:19;98735.00;;;-2.44;100.00
22743;BME280;11538;48.884;8.696;2023-12-04T01:19:46;98735.97;;;-2.39;100.00
22743;BME280;11538;48.884;8.696;2023-12-04T01:22:13;98727.78;;;-2.37;100.00
22743;BME280;11538;48.884;8.696;2023-12-04T01:24:40;98726.78;;;-2.43;100.00
22743;BME280;11538;48.884;8.696;2023-12-04T01:27:07;98728.81;;;-2.38;100.00
22743;BME280;11538;48.884;8.696;2023-12-04T01:29:33;98737.91;;;-2.27;100.00
22743;BME280;11538;48.884;8.696;2023-12-04T01:32:01;98727.69;;;-2.24;100.00
22743;BME280;11538;48.884;8.696;2023-12-04T01:34:28;98728.13;;;-2.27;100.00
22743;BME280;11538;48.884;8.696;2023-12-04T01:36:55;98721.81;;;-2.32;100.00
22743;BME280;11538;48.884;8.696;2023-12-04T01:39:22;98721.22;;;-2.35;100.00
22743;BME280;11538;48.884;8.696;2023-12-04T01:41:49;98715.53;;;-2.38;100.00
22743;BME280;11538;48.884;8.696;2023-12-04T01:44:16;98715.97;;;-2.41;100.00
22743;BME280;11538;48.884;8.696;2023-12-04T01:46:44;98718.78;;;-2.36;100.00
22743;BME280;11538;48.884;8.696;2023-12-04T01:49:11;98718.78;;;-2.36;100.00
22743;BME280;11538;48.884;8.696;2023-12-04T01:51:39;98710.25;;;-2.45;100.00
22743;BME280;11538;48.884;8.696;2023-12-04T01:54:06;98710.50;;;-2.46;100.00
22743;BME280;11538;48.884;8.696;2023-12-04T01:56:35;98709.19;;;-2.37;100.00
22743;BME280;11538;48.884;8.696;2023-12-04T01:59:04;98710.00;;;-2.37;100.00
22743;BME280;11538;48.884;8.696;2023-12-04T02:01:31;98709.81;;;-2.42;100.00
22743;BME280;11538;48.884;8.696;2023-12-04T02:04:01;98711.69;;;-2.42;100.00
22743;BME280;11538;48.884;8.696;2023-12-04T02:06:28;98710.22;;;-2.38;100.00
22743;BME280;11538;48.884;8.696;2023-12-04T02:08:56;98713.03;;;-2.33;100.00
22743;BME280;11538;48.884;8.696;2023-12-04T02:11:24;98717.09;;;-2.30;100.00
22743;BME280;11538;48.884;8.696;2023-12-04T02:13:51;98709.19;;;-2.37;100.00
22743;BME280;11538;48.884;8.696;2023-12-04T02:16:19;98693.09;;;-2.42;100.00
22743;BME280;11538;48.884;8.696;2023-12-04T02:18:51;98697.75;;;-2.38;100.00
22743;BME280;11538;48.884;8.696;2023-12-04T02:21:18;98693.47;;;-2.39;100.00
22743;BME280;11538;48.884;8.696;2023-12-04T02:23:52;98689.94;;;-2.32;100.00
22743;BME280;11538;48.884;8.696;2023-12-04T02:26:28;98692.16;;;-2.29;100.00
22743;BME280;11538;48.884;8.696;2023-12-04T02:29:07;98683.81;;;-2.33;100.00
22743;BME280;11538;48.884;8.696;2023-12-04T02:31:40;98678.06;;;-2.30;100.00
22743;BME280;11538;48.884;8.696;2023-12-04T02:34:10;98670.91;;;-2.29;100.00
22743;BME280;11538;48.884;8.696;2023-12-04T02:36:41;98661.53;;;-2.32;100.00
22743;BME280;11538;48.884;8.696;2023-12-04T02:39:09;98657.84;;;-2.31;100.00
22743;BME280;11538;48.884;8.696;2023-12-04T02:41:36;98660.22;;;-2.23;100.00
22743;BME280;11538;48.884;8.696;2023-12-04T02:44:03;98647.97;;;-2.24;100.00
22743;BME280;11538;48.884;8.696;2023-12-04T02:46:30;98653.06;;;-2.22;100.00
22743;BME280;11538;48.884;8.696;2023-12-04T02:48:57;98645.91;;;-2.22;100.00
22743;BME280;11538;48.884;8.696;2023-12-04T02:51:24;98643.69;;;-2.25;100.00
22743;BME280;11538;48.884;8.696;2023-12-04T02:53:53;98643.44;;;-2.23;100.00
22743;BME280;11538;48.884;8.696;2023-12-04T02:56:20;98638.13;;;-2.23;100.00
22743;BME280;11538;48.884;8.696;2023-12-04T02:58:47;98631.59;;;-2.21;100.00
22743;BME280;11538;48.884;8.696;2023-12-04T03:01:14;98625.00;;;-2.18;100.00
22743;BME280;11538;48.884;8.696;2023-12-04T03:03:40;98625.88;;;-2.24;100.00
22743;BME280;11538;48.884;8.696;2023-12-04T03:06:08;98619.19;;;-2.27;100.00
22743;BME280;11538;48.884;8.696;2023-12-04T03:08:35;98611.41;;;-2.28;100.00
22743;BME280;11538;48.884;8.696;2023-12-04T03:11:02;98607.09;;;-2.23;100.00
22743;BME280;11538;48.884;8.696;2023-12-04T03:13:30;98601.69;;;-2.16;100.00
22743;BME280;11538;48.884;8.696;2023-12-04T03:15:57;98596.38;;;-2.16;100.00
22743;BME280;11538;48.884;8.696;2023-12-04T03:18:24;98595.91;;;-2.13;100.00
22743;BME280;11538;48.884;8.696;2023-12-04T03:20:53;98579.81;;;-2.18;100.00
22743;BME280;11538;48.884;8.696;2023-12-04T03:23:20;98584.50;;;-2.13;100.00
22743;BME280;11538;48.884;8.696;2023-12-04T03:25:47;98575.25;;;-2.11;100.00
22743;BME280;11538;48.884;8.696;2023-12-04T03:28:13;98581.84;;;-2.13;100.00
22743;BME280;11538;48.884;8.696;2023-12-04T03:30:42;98571.66;;;-2.16;100.00
22743;BME280;11538;48.884;8.696;2023-12-04T03:33:12;98569.78;;;-2.16;100.00
22743;BME280;11538;48.884;8.696;2023-12-04T03:35:39;98561.22;;;-2.18;100.00
22743;BME280;11538;48.884;8.696;2023-12-04T03:38:06;98558.13;;;-2.15;100.00
22743;BME280;11538;48.884;8.696;2023-12-04T03:40:33;98563.22;;;-2.13;100.00
22743;BME280;11538;48.884;8.696;2023-12-04T03:43:00;98555.25;;;-2.13;100.00
22743;BME280;11538;48.884;8.696;2023-12-04T03:45:27;98558.50;;;-2.11;100.00
22743;BME280;11538;48.884;8.696;2023-12-04T03:47:54;98560.88;;;-2.03;100.00
22743;BME280;11538;48.884;8.696;2023-12-04T03:50:21;98567.22;;;-2.04;100.00
22743;BME280;11538;48.884;8.696;2023-12-04T03:52:48;98560.72;;;-2.08;100.00
22743;BME280;11538;48.884;8.696;2023-12-04T03:55:15;98561.06;;;-2.04;100.00
22743;BME280;11538;48.884;8.696;2023-12-04T03:57:42;98559.25;;;-2.04;100.00
22743;BME280;11538;48.884;8.696;2023-12-04T04:00:10;98569.19;;;-1.99;100.00
22743;BME280;11538;48.884;8.696;2023-12-04T04:02:43;98564.69;;;-1.99;100.00
22743;BME280;11538;48.884;8.696;2023-12-04T04:05:10;98569.63;;;-2.02;100.00
22743;BME280;11538;48.884;8.696;2023-12-04T04:07:37;98564.56;;;-2.04;100.00
22743;BME280;11538;48.884;8.696;2023-12-04T04:10:05;98562.03;;;-1.99;100.00
22743;BME280;11538;48.884;8.696;2023-12-04T04:12:32;98572.09;;;-2.01;100.00
22743;BME280;11538;48.884;8.696;2023-12-04T04:14:59;98574.88;;;-1.96;100.00
22743;BME280;11538;48.884;8.696;2023-12-04T04:17:26;98568.34;;;-1.93;100.00
22743;BME280;11538;48.884;8.696;2023-12-04T04:19:53;98570.16;;;-1.94;100.00
22743;BME280;11538;48.884;8.696;2023-12-04T04:22:24;98576.50;;;-1.95;100.00
22743;BME280;11538;48.884;8.696;2023-12-04T04:24:51;98568.59;;;-2.01;100.00
22743;BME280;11538;48.884;8.696;2023-12-04T04:27:19;98572.09;;;-2.01;100.00
22743;BME280;11538;48.884;8.696;2023-12-04T04:29:46;98569.19;;;-1.99;100.00
22743;BME280;11538;48.884;8.696;2023-12-04T04:32:13;98568.19;;;-1.98;100.00
22743;BME280;11538;48.884;8.696;2023-12-04T04:34:40;98555.56;;;-2.03;100.00
22743;BME280;11538;48.884;8.696;2023-12-04T04:37:08;98557.03;;;-2.07;100.00
22743;BME280;11538;48.884;8.696;2023-12-04T04:39:34;98560.28;;;-2.05;100.00
22743;BME280;11538;48.884;8.696;2023-12-04T04:42:01;98562.56;;;-2.09;100.00
22743;BME280;11538;48.884;8.696;2023-12-04T04:44:29;98557.03;;;-2.07;100.00
22743;BME280;11538;48.884;8.696;2023-12-04T04:46:55;98555.16;;;-2.07;100.00
22743;BME280;11538;48.884;8.696;2023-12-04T04:49:22;98549.41;;;-2.03;100.00
22743;BME280;11538;48.884;8.696;2023-12-04T04:51:49;98554.66;;;-1.97;100.00
22743;BME280;11538;48.884;8.696;2023-12-04T04:54:16;98548.75;;;-1.99;100.00
22743;BME280;11538;48.884;8.696;2023-12-04T04:56:43;98538.94;;;-1.98;100.00
22743;BME280;11538;48.884;8.696;2023-12-04T04:59:10;98549.72;;;-1.93;100.00
22743;BME280;11538;48.884;8.696;2023-12-04T05:01:36;98539.75;;;-1.98;100.00
22743;BME280;11538;48.884;8.696;2023-12-04T05:04:03;98536.50;;;-2.00;100.00
22743;BME280;11538;48.884;8.696;2023-12-04T05:06:30;98531.78;;;-1.98;100.00
22743;BME280;11538;48.884;8.696;2023-12-04T05:08:58;98540.72;;;-1.92;100.00
22743;BME280;11538;48.884;8.696;2023-12-04T05:11:24;98543.56;;;-1.94;100.00
22743;BME280;11538;48.884;8.696;2023-12-04T05:13:51;98537.22;;;-1.93;100.00
22743;BME280;11538;48.884;8.696;2023-12-04T05:16:18;98522.31;;;-1.94;100.00
22743;BME280;11538;48.884;8.696;2023-12-04T05:18:45;98515.97;;;-1.93;100.00
22743;BME280;11538;48.884;8.696;2023-12-04T05:21:12;98519.19;;;-1.91;100.00
22743;BME280;11538;48.884;8.696;2023-12-04T05:23:40;98523.28;;;-1.88;100.00
22743;BME280;11538;48.884;8.696;2023-12-04T05:26:07;98519.34;;;-1.85;100.00
22743;BME280;11538;48.884;8.696;2023-12-04T05:28:34;98524.66;;;-1.85;100.00
22743;BME280;11538;48.884;8.696;2023-12-04T05:31:02;98532.16;;;-1.94;100.00
22743;BME280;11538;48.884;8.696;2023-12-04T05:33:29;98530.59;;;-2.02;100.00
22743;BME280;11538;48.884;8.696;2023-12-04T05:35:56;98536.13;;;-2.03;100.00
22743;BME280;11538;48.884;8.696;2023-12-04T05:38:23;98538.78;;;-2.03;100.00
22743;BME280;11538;48.884;8.696;2023-12-04T05:40:50;98531.50;;;-2.08;100.00
22743;BME280;11538;48.884;8.696;2023-12-04T05:43:17;98533.31;;;-2.09;100.00
22743;BME280;11538;48.884;8.696;2023-12-04T05:45:45;98534.59;;;-2.11;100.00
22743;BME280;11538;48.884;8.696;2023-12-04T05:48:13;98526.75;;;-2.06;100.00
22743;BME280;11538;48.884;8.696;2023-12-04T05:50:40;98519.88;;;-1.95;100.00
22743;BME280;11538;48.884;8.696;2023-12-04T05:53:07;98518.09;;;-2.01;100.00
22743;BME280;11538;48.884;8.696;2023-12-04T05:55:34;98517.91;;;-2.00;100.00
22743;BME280;11538;48.884;8.696;2023-12-04T05:58:01;98528.66;;;-1.95;100.00
22743;BME280;11538;48.884;8.696;2023-12-04T06:00:28;98523.41;;;-2.01;100.00
22743;BME280;11538;48.884;8.696;2023-12-04T06:02:55;98515.09;;;-2.05;100.00
22743;BME280;11538;48.884;8.696;2023-12-04T06:05:22;98520.28;;;-2.10;100.00
22743;BME280;11538;48.884;8.696;2023-12-04T06:07:50;98516.56;;;-2.09;100.00
22743;BME280;11538;48.884;8.696;2023-12-04T06:10:17;98519.81;;;-2.07;100.00
22743;BME280;11538;48.884;8.696;2023-12-04T06:12:44;98512.94;;;-2.15;100.00
22743;BME280;11538;48.884;8.696;2023-12-04T06:15:11;98509.50;;;-2.15;100.00
22743;BME280;11538;48.884;8.696;2023-12-04T06:17:38;98503.50;;;-2.11;100.00
22743;BME280;11538;48.884;8.696;2023-12-04T06:20:06;98500.63;;;-2.09;100.00
22743;BME280;11538;48.884;8.696;2023-12-04T06:22:33;98492.72;;;-2.16;100.00
22743;BME280;11538;48.884;8.696;2023-12-04T06:25:00;98489.47;;;-2.18;100.00
22743;BME280;11538;48.884;8.696;2023-12-04T06:27:28;98483.72;;;-2.15;100.00
22743;BME280;11538;48.884;8.696;2023-12-04T06:29:55;98481.59;;;-2.06;100.00
22743;BME280;11538;48.884;8.696;2023-12-04T06:32:22;98477.88;;;-2.05;100.00
22743;BME280;11538;48.884;8.696;2023-12-04T06:34:49;98464.00;;;-2.07;100.00
22743;BME280;11538;48.884;8.696;2023-12-04T06:37:17;98464.00;;;-2.07;100.00
22743;BME280;11538;48.884;8.696;2023-12-04T06:39:48;98455.44;;;-2.09;100.00
22743;BME280;11538;48.884;8.696;2023-12-04T06:42:15;98450.78;;;-2.14;100.00
22743;BME280;11538;48.884;8.696;2023-12-04T06:44:43;98447.09;;;-2.13;100.00
22743;BME280;11538;48.884;8.696;2023-12-04T06:47:12;98445.13;;;-2.17;100.00
22743;BME280;11538;48.884;8.696;2023-12-04T06:49:43;98447.94;;;-2.12;100.00
22743;BME280;11538;48.884;8.696;2023-12-04T06:52:10;98445.16;;;-2.06;100.00
22743;BME280;11538;48.884;8.696;2023-12-04T06:54:37;98437.50;;;-2.14;100.00
22743;BME280;11538;48.884;8.696;2023-12-04T06:57:04;98445.13;;;-2.17;100.00
22743;BME280;11538;48.884;8.696;2023-12-04T06:59:31;98439.13;;;-2.13;100.00
22743;BME280;11538;48.884;8.696;2023-12-04T07:01:58;98428.28;;;-2.11;100.00
22743;BME280;11538;48.884;8.696;2023-12-04T07:04:25;98423.63;;;-1.97;100.00
22743;BME280;11538;48.884;8.696;2023-12-04T07:06:52;98419.34;;;-1.86;100.00
22743;BME280;11538;48.884;8.696;2023-12-04T07:09:19;98415.91;;;-1.87;100.00
22743;BME280;11538;48.884;8.696;2023-12-04T07:11:46;98401.66;;;-1.93;100.00
22743;BME280;11538;48.884;8.696;2023-12-04T07:14:14;98401.31;;;-1.84;100.00
22743;BME280;11538;48.884;8.696;2023-12-04T07:16:42;98396.13;;;-1.79;100.00
22743;BME280;11538;48.884;8.696;2023-12-04T07:19:10;98384.00;;;-1.75;100.00
22743;BME280;11538;48.884;8.696;2023-12-04T07:21:38;98386.44;;;-1.73;100.00
22743;BME280;11538;48.884;8.696;2023-12-04T07:24:06;98407.34;;;-1.77;100.00
22743;BME280;11538;48.884;8.696;2023-12-04T07:26:34;98405.28;;;-1.75;100.00
22743;BME280;11538;48.884;8.696;2023-12-04T07:29:02;98403.31;;;-1.80;100.00
22743;BME280;11538;48.884;8.696;2023-12-04T07:31:30;98401.69;;;-1.81;100.00
22743;BME280;11538;48.884;8.696;2023-12-04T07:33:57;98410.00;;;-1.77;100.00
22743;BME280;11538;48.884;8.696;2023-12-04T07:36:27;98410.97;;;-1.71;100.00
22743;BME280;11538;48.884;8.696;2023-12-04T07:38:54;98418.69;;;-1.70;100.00
22743;BME280;11538;48.884;8.696;2023-12-04T07:41:21;98416.88;;;-1.57;100.00
22743;BME280;11538;48.884;8.696;2023-12-04T07:43:49;98417.56;;;-1.50;100.00
22743;BME280;11538;48.884;8.696;2023-12-04T07:46:16;98429.94;;;-1.44;100.00
22743;BME280;11538;48.884;8.696;2023-12-04T07:48:43;98421.16;;;-1.44;100.00
22743;BME280;11538;48.884;8.696;2023-12-04T07:51:11;98419.75;;;-1.47;100.00
22743;BME280;11538;48.884;8.696;2023-12-04T07:53:38;98416.97;;;-1.52;100.00
22743;BME280;11538;48.884;8.696;2023-12-04T07:56:05;98411.09;;;-1.54;100.00
22743;BME280;11538;48.884;8.696;2023-12-04T07:58:32;98405.75;;;-1.54;100.00
22743;BME280;11538;48.884;8.696;2023-12-04T08:00:59;98397.91;;;-1.49;100.00
22743;BME280;11538;48.884;8.696;2023-12-04T08:03:27;98383.69;;;-1.43;100.00
22743;BME280;11538;48.884;8.696;2023-12-04T08:05:54;98377.44;;;-1.37;100.00
22743;BME280;11538;48.884;8.696;2023-12-04T08:08:21;98376.97;;;-1.34;100.00
22743;BME280;11538;48.884;8.696;2023-12-04T08:10:48;98381.63;;;-1.29;100.00
22743;BME280;11538;48.884;8.696;2023-12-04T08:13:15;98386.25;;;-1.24;100.00
22743;BME280;11538;48.884;8.696;2023-12-04T08:15:45;98380.56;;;-1.28;100.00
22743;BME280;11538;48.884;8.696;2023-12-04T08:18:12;98372.69;;;-1.35;100.00
22743;BME280;11538;48.884;8.696;2023-12-04T08:20:39;98366.22;;;-1.27;100.00
22743;BME280;11538;48.884;8.696;2023-12-04T08:23:08;98370.97;;;-1.29;100.00
22743;BME280;11538;48.884;8.696;2023-12-04T08:25:35;98375.03;;;-1.26;100.00
22743;BME280;11538;48.884;8.696;2023-12-04T08:28:06;98358.94;;;-1.20;100.00
22743;BME280;11538;48.884;8.696;2023-12-04T08:30:33;98352.66;;;-1.13;100.00
22743;BME280;11538;48.884;8.696;2023-12-04T08:33:00;98352.19;;;-1.10;100.00
22743;BME280;11538;48.884;8.696;2023-12-04T08:35:27;98347.22;;;-1.07;100.00
22743;BME280;11538;48.884;8.696;2023-12-04T08:37:54;98349.44;;;-1.04;100.00
22743;BME280;11538;48.884;8.696;2023-12-04T08:40:21;98350.00;;;-1.01;100.00
22743;BME280;11538;48.884;8.696;2023-12-04T08:42:48;98351.03;;;-1.02;100.00
22743;BME280;11538;48.884;8.696;2023-12-04T08:45:15;98342.81;;;-1.01;100.00
22743;BME280;11538;48.884;8.696;2023-12-04T08:47:45;98346.88;;;-0.98;100.00
22743;BME280;11538;48.884;8.696;2023-12-04T08:50:13;98353.34;;;-0.94;100.00
22743;BME280;11538;48.884;8.696;2023-12-04T08:52:40;98358.78;;;-0.89;100.00
22743;BME280;11538;48.884;8.696;2023-12-04T08:55:09;98355.63;;;-0.86;100.00
22743;BME280;11538;48.884;8.696;2023-12-04T08:57:37;98344.03;;;-0.80;100.00
22743;BME280;11538;48.884;8.696;2023-12-04T09:00:05;98349.94;;;-0.78;100.00
22743;BME280;11538;48.884;8.696;2023-12-04T09:02:32;98360.03;;;-0.80;100.00
22743;BME280;11538;48.884;8.696;2023-12-04T09:04:59;98351.09;;;-0.74;100.00
22743;BME280;11538;48.884;8.696;2023-12-04T09:07:26;98339.84;;;-0.76;100.00
22743;BME280;11538;48.884;8.696;2023-12-04T09:10:13;98345.75;;;-0.74;100.00
22743;BME280;11538;48.884;8.696;2023-12-04T09:13:00;98354.06;;;-0.70;100.00
22743;BME280;11538;48.884;8.696;2023-12-04T09:15:27;98353.59;;;-0.67;100.00
22743;BME280;11538;48.884;8.696;2023-12-04T09:17:55;98367.16;;;-0.68;100.00
22743;BME280;11538;48.884;8.696;2023-12-04T09:20:23;98364.03;;;-0.65;100.00
22743;BME280;11538;48.884;8.696;2023-12-04T09:22:50;98363.22;;;-0.66;100.00
22743;BME280;11538;48.884;8.696;2023-12-04T09:25:23;98371.19;;;-0.54;100.00
22743;BME280;11538;48.884;8.696;2023-12-04T09:27:50;98379.44;;;-0.38;100.00
22743;BME280;11538;48.884;8.696;2023-12-04T09:30:17;98381.91;;;-0.37;100.00
22743;BME280;11538;48.884;8.696;2023-12-04T09:32:46;98370.03;;;-0.29;100.00
22743;BME280;11538;48.884;8.696;2023-12-04T09:35:13;98378.78;;;-0.17;100.00
22743;BME280;11538;48.884;8.696;2023-12-04T09:37:39;98377.34;;;-0.07;100.00
22743;BME280;11538;48.884;8.696;2023-12-04T09:40:07;98370.03;;;0.00;100.00
22743;BME280;11538;48.884;8.696;2023-12-04T09:42:35;98359.84;;;0.14;100.00
22743;BME280;11538;48.884;8.696;2023-12-04T09:45:04;98345.97;;;0.29;100.00
22743;BME280;11538;48.884;8.696;2023-12-04T09:47:32;98340.94;;;0.33;100.00
22743;BME280;11538;48.884;8.696;2023-12-04T09:50:01;98343.50;;;0.27;100.00
22743;BME280;11538;48.884;8.696;2023-12-04T09:52:29;98339.81;;;0.11;100.00
22743;BME280;11538;48.884;8.696;2023-12-04T09:54:57;98349.72;;;-0.01;100.00
22743;BME280;11538;48.884;8.696;2023-12-04T09:57:24;98341.53;;;-0.11;100.00
22743;BME280;11538;48.884;8.696;2023-12-04T09:59:52;98343.72;;;-0.08;100.00
22743;BME280;11538;48.884;8.696;2023-12-04T10:02:20;98337.78;;;0.02;100.00
22743;BME280;11538;48.884;8.696;2023-12-04T10:04:48;98344.81;;;0.08;100.00
22743;BME280;11538;48.884;8.696;2023-12-04T10:07:15;98342.22;;;0.13;100.00
22743;BME280;11538;48.884;8.696;2023-12-04T10:09:44;98339.63;;;0.18;100.00
22743;BME280;11538;48.884;8.696;2023-12-04T10:12:11;98344.47;;;0.21;100.00
22743;BME280;11538;48.884;8.696;2023-12-04T10:14:38;98329.31;;;0.22;100.00
22743;BME280;11538;48.884;8.696;2023-12-04T10:17:15;98333.03;;;0.21;100.00
22743;BME280;11538;48.884;8.696;2023-12-04T10:19:45;98334.16;;;0.25;100.00
22743;BME280;11538;48.884;8.696;2023-12-04T10:22:12;98337.38;;;0.27;100.00
22743;BME280;11538;48.884;8.696;2023-12-04T10:24:40;98327.28;;;0.29;100.00
22743;BME280;11538;48.884;8.696;2023-12-04T10:27:09;98312.06;;;0.29;100.00
22743;BME280;11538;48.884;8.696;2023-12-04T10:29:44;98301.47;;;0.35;100.00
22743;BME280;11538;48.884;8.696;2023-12-04T10:32:12;98296.47;;;0.38;100.00
22743;BME280;11538;48.884;8.696;2023-12-04T10:34:41;98288.75;;;0.42;100.00
22743;BME280;11538;48.884;8.696;2023-12-04T10:37:10;98291.78;;;0.46;100.00
22743;BME280;11538;48.884;8.696;2023-12-04T10:39:51;98280.34;;;0.50;100.00
22743;BME280;11538;48.884;8.696;2023-12-04T10:42:29;98274.28;;;0.55;100.00
22743;BME280;11538;48.884;8.696;2023-12-04T10:44:58;98262.19;;;0.69;100.00
22743;BME280;11538;48.884;8.696;2023-12-04T10:47:28;98251.00;;;0.72;100.00
22743;BME280;11538;48.884;8.696;2023-12-04T10:49:56;98251.13;;;0.61;100.00
22743;BME280;11538;48.884;8.696;2023-12-04T10:52:23;98270.84;;;0.60;100.00
22743;BME280;11538;48.884;8.696;2023-12-04T10:54:51;98259.06;;;0.55;100.00
22743;BME280;11538;48.884;8.696;2023-12-04T10:57:26;98263.34;;;0.56;100.00
22743;BME280;11538;48.884;8.696;2023-12-04T11:00:02;98256.16;;;0.57;100.00
22743;BME280;11538;48.884;8.696;2023-12-04T11:02:34;98258.88;;;0.62;100.00
22743;BME280;11538;48.884;8.696;2023-12-04T11:05:08;98245.38;;;0.69;100.00
22743;BME280;11538;48.884;8.696;2023-12-04T11:07:48;98241.16;;;0.73;100.00
22743;BME280;11538;48.884;8.696;2023-12-04T11:10:51;98242.50;;;0.76;100.00
22743;BME280;11538;48.884;8.696;2023-12-04T11:13:28;98238.28;;;0.80;100.00
22743;BME280;11538;48.884;8.696;2023-12-04T11:16:28;98236.16;;;0.82;100.00
22743;BME280;11538;48.884;8.696;2023-12-04T11:21:37;98241.13;;;0.95;100.00
22743;BME280;11538;48.884;8.696;2023-12-04T11:24:06;98233.16;;;1.00;100.00
22743;BME280;11538;48.884;8.696;2023-12-04T11:26:34;98222.75;;;0.99;100.00
22743;BME280;11538;48.884;8.696;2023-12-04T11:29:04;98219.25;;;0.98;100.00
22743;BME280;11538;48.884;8.696;2023-12-04T11:31:31;98196.78;;;0.94;100.00
22743;BME280;11538;48.884;8.696;2023-12-04T11:34:02;98195.19;;;0.93;100.00
22743;BME280;11538;48.884;8.696;2023-12-04T11:36:30;98184.53;;;0.98;100.00
22743;BME280;11538;48.884;8.696;2023-12-04T11:39:00;98170.63;;;0.96;100.00
22743;BME280;11538;48.884;8.696;2023-12-04T11:41:27;98165.31;;;0.96;100.00
22743;BME280;11538;48.884;8.696;2023-12-04T11:43:57;98163.44;;;0.97;100.00
22743;BME280;11538;48.884;8.696;2023-12-04T11:46:26;98165.34;;;1.01;100.00
22743;BME280;11538;48.884;8.696;2023-12-04T11:48:57;98161.38;;;1.04;100.00
22743;BME280;11538;48.884;8.696;2023-12-04T11:54:16;98157.44;;;1.12;100.00
22743;BME280;11538;48.884;8.696;2023-12-04T11:57:20;98148.88;;;1.10;100.00
22743;BME280;11538;48.884;8.696;2023-12-04T11:59:48;98154.47;;;1.08;100.00
22743;BME280;11538;48.884;8.696;2023-12-04T12:02:16;98146.47;;;1.08;100.00
22743;BME280;11538;48.884;8.696;2023-12-04T12:04:44;98143.28;;;1.11;100.00
22743;BME280;11538;48.884;8.696;2023-12-04T12:07:14;98133.94;;;1.14;100.00
22743;BME280;11538;48.884;8.696;2023-12-04T12:09:41;98132.38;;;1.18;100.00
22743;BME280;11538;48.884;8.696;2023-12-04T12:12:09;98121.19;;;1.21;100.00
22743;BME280;11538;48.884;8.696;2023-12-04T12:14:36;98113.72;;;1.23;100.00
22743;BME280;11538;48.884;8.696;2023-12-04T12:17:03;98118.56;;;1.26;100.00
22743;BME280;11538;48.884;8.696;2023-12-04T12:19:30;98116.44;;;1.28;100.00
22743;BME280;11538;48.884;8.696;2023-12-04T12:21:57;98119.16;;;1.34;100.00
22743;BME280;11538;48.884;8.696;2023-12-04T12:24:24;98103.69;;;1.36;100.00
22743;BME280;11538;48.884;8.696;2023-12-04T12:26:54;98094.06;;;1.35;100.00
22743;BME280;11538;48.884;8.696;2023-12-04T12:29:22;98093.25;;;1.34;100.00
22743;BME280;11538;48.884;8.696;2023-12-04T12:31:50;98092.44;;;1.34;100.00
22743;BME280;11538;48.884;8.696;2023-12-04T12:34:17;98090.84;;;1.33;100.00
22743;BME280;11538;48.884;8.696;2023-12-04T12:36:45;98088.41;;;1.31;100.00
22743;BME280;11538;48.884;8.696;2023-12-04T12:39:12;98080.09;;;1.27;100.00
22743;BME280;11538;48.884;8.696;2023-12-04T12:41:50;98072.06;;;1.27;100.00
22743;BME280;11538;48.884;8.696;2023-12-04T12:44:17;98073.16;;;1.31;100.00
22743;BME280;11538;48.884;8.696;2023-12-04T12:46:49;98064.38;;;1.31;100.00
22743;BME280;11538;48.884;8.696;2023-12-04T12:49:26;98062.00;;;1.35;100.00
22743;BME280;11538;48.884;8.696;2023-12-04T12:52:07;98057.78;;;1.44;100.00
22743;BME280;11538;48.884;8.696;2023-12-04T12:54:41;98056.72;;;1.45;100.00
22743;BME280;11538;48.884;8.696;2023-12-04T12:57:11;98056.47;;;1.52;100.00
22743;BME280;11538;48.884;8.696;2023-12-04T12:59:39;98051.44;;;1.55;100.00
22743;BME280;11538;48.884;8.696;2023-12-04T13:02:07;98051.69;;;1.54;100.00
22743;BME280;11538;48.884;8.696;2023-12-04T13:04:37;98043.38;;;1.50;100.00